»·PEaware :: N525SA KBFL-KIFP

N525SA :: KBFL-KIFP

FLIGHT INFORMATION

Flight Status: Arrived
Operator: Privately registered:
United States
More flights under this callsign
Pilot: Utku A. (15598)
Aircraft: SOCATA TBM-900
(TBM9)
More flights by this aircraft type
Origin: KBFL Meadows
United States
Destination: KIFP Laughlin/Bullhead Intl
United States
More flights between these airports :: More routes between these airports
Route: +MEADO3 EHF V197 PMD V12 EED
File this flight plan on PilotEdge
Remarks:
Altitude:
(Current/Filed)
23,000ft
Speed:
(Current/Filed)
290kts
Departed: 02-Nov-18 12:40 PM
Arrived: 02-Nov-18 01:50 PM
Distance/Time
Traveled:
221nm/1:09
Distance/Time
To Go:
Arrived

Flight Plot

Page will automatically refresh every two minutes.

Flight plan parsing failed; only flown route is shown


Map Options




Map Legend


Flown Route
Filed Route
Departure Airport
Arrival Airport
Navaid (VOR, NDB)
Fix

Horizontal Profiles

Position Reports

Time Latitude Longitude Heading Altitude Ground
Speed
02-Nov-18 12:18 35.429462 -119.046524 133 496ft 0kts
02-Nov-18 12:19 35.429462 -119.046524 133 496ft 0kts
02-Nov-18 12:20 35.429462 -119.046524 133 496ft 0kts
02-Nov-18 12:21 35.429462 -119.046524 133 496ft 0kts
02-Nov-18 12:22 35.429462 -119.046524 133 496ft 0kts
02-Nov-18 12:23 35.429462 -119.046524 133 496ft 0kts
02-Nov-18 12:24 35.429462 -119.046524 133 496ft 0kts
02-Nov-18 12:25 35.429462 -119.046524 133 496ft 0kts
02-Nov-18 12:26 35.429462 -119.046524 133 496ft 0kts
02-Nov-18 12:27 35.429462 -119.046524 133 496ft 0kts
02-Nov-18 12:28 35.429462 -119.046524 133 496ft 0kts
02-Nov-18 12:29 35.429462 -119.046524 133 496ft 0kts
02-Nov-18 12:30 35.429462 -119.046524 133 496ft 0kts
02-Nov-18 12:31 35.429462 -119.046524 133 496ft 0kts
02-Nov-18 12:32 35.429462 -119.046524 133 496ft 0kts
02-Nov-18 12:33 35.428002 -119.046911 132 496ft 12kts
02-Nov-18 12:34 35.425650 -119.044471 216 496ft 4kts
02-Nov-18 12:35 35.425578 -119.044628 255 496ft 0kts
02-Nov-18 12:36 35.425578 -119.044628 255 496ft 0kts
02-Nov-18 12:37 35.425578 -119.044627 255 496ft 0kts
02-Nov-18 12:38 35.425578 -119.044627 255 496ft 0kts
02-Nov-18 12:39 35.425578 -119.044628 255 496ft 0kts
02-Nov-18 12:40 35.425578 -119.044628 255 496ft 0kts
02-Nov-18 12:41 35.425727 -119.046360 315 496ft 17kts
02-Nov-18 12:42 35.441957 -119.068141 317 1856ft 117kts
02-Nov-18 12:43 35.466512 -119.098890 318 2766ft 142kts
02-Nov-18 12:44 35.492048 -119.130428 312 3711ft 139kts
02-Nov-18 12:45 35.513150 -119.167674 267 6319ft 141kts
02-Nov-18 12:46 35.486376 -119.168401 101 8562ft 140kts
02-Nov-18 12:47 35.474341 -119.122687 116 10784ft 147kts
02-Nov-18 12:48 35.449375 -119.082154 129 12851ft 153kts
02-Nov-18 12:49 35.419979 -119.043477 131 14738ft 161kts
02-Nov-18 12:50 35.388655 -119.003736 132 16986ft 165kts
02-Nov-18 12:51 35.356560 -118.963296 131 19059ft 170kts
02-Nov-18 12:53 35.323017 -118.921156 131 20901ft 177kts
02-Nov-18 12:54 35.287261 -118.876241 132 21970ft 210kts
02-Nov-18 12:55 35.245427 -118.823872 132 22837ft 227kts
02-Nov-18 12:56 35.197774 -118.764256 132 22834ft 256kts
02-Nov-18 12:57 35.147013 -118.700847 132 22828ft 265kts
02-Nov-18 12:58 35.095278 -118.636433 132 22827ft 267kts
02-Nov-18 12:59 35.043259 -118.571715 132 22827ft 267kts
02-Nov-18 13:00 34.992804 -118.509106 132 22840ft 251kts
02-Nov-18 13:01 34.946458 -118.451660 132 24110ft 237kts
02-Nov-18 13:02 34.897679 -118.391293 132 24847ft 281kts
02-Nov-18 13:03 34.850411 -118.332968 133 24833ft 307kts
02-Nov-18 13:04 34.793733 -118.263099 132 24995ft 299kts
02-Nov-18 13:05 34.735592 -118.191595 133 24999ft 298kts
02-Nov-18 13:06 34.677760 -118.120618 132 24996ft 291kts
02-Nov-18 13:07 34.635962 -118.043883 87 25020ft 278kts
02-Nov-18 13:08 34.643888 -117.950905 81 24999ft 277kts
02-Nov-18 13:09 34.653874 -117.858289 80 25000ft 276kts
02-Nov-18 13:10 34.663877 -117.765842 81 25000ft 277kts
02-Nov-18 13:11 34.672365 -117.685562 75 25232ft 280kts
02-Nov-18 13:12 34.682791 -117.588975 76 25251ft 298kts
02-Nov-18 13:13 34.693440 -117.488227 76 25249ft 304kts
02-Nov-18 13:14 34.704160 -117.386055 76 25249ft 306kts
02-Nov-18 13:15 34.714746 -117.284455 77 25243ft 307kts
02-Nov-18 13:16 34.725388 -117.181474 77 25243ft 307kts
02-Nov-18 13:17 34.735918 -117.078631 76 25234ft 307kts
02-Nov-18 13:18 34.746337 -116.975710 76 25211ft 307kts
02-Nov-18 13:19 34.756636 -116.873098 76 25191ft 306kts
02-Nov-18 13:20 34.766747 -116.771798 75 25191ft 305kts
02-Nov-18 13:21 34.776877 -116.669336 75 25191ft 305kts
02-Nov-18 13:22 34.786909 -116.566978 75 25192ft 305kts
02-Nov-18 13:23 34.796644 -116.464780 80 25186ft 308kts
02-Nov-18 13:24 34.796203 -116.360070 83 25199ft 309kts
02-Nov-18 13:25 34.795305 -116.256487 84 25217ft 309kts
02-Nov-18 13:26 34.794307 -116.152076 84 25242ft 308kts
02-Nov-18 13:27 34.793221 -116.047701 84 25244ft 309kts
02-Nov-18 13:28 34.792055 -115.942533 84 24771ft 324kts
02-Nov-18 13:29 34.790713 -115.832745 85 23435ft 338kts
02-Nov-18 13:30 34.789208 -115.718147 85 22039ft 339kts
02-Nov-18 13:31 34.787608 -115.604004 85 20636ft 335kts
02-Nov-18 13:32 34.785932 -115.491648 85 19194ft 333kts
02-Nov-18 13:33 34.784126 -115.377954 86 17194ft 331kts
02-Nov-18 13:34 34.782367 -115.272769 86 15190ft 306kts
02-Nov-18 13:35 34.780590 -115.171423 87 13186ft 298kts
02-Nov-18 13:36 34.778868 -115.074571 87 11994ft 277kts
02-Nov-18 13:37 34.777614 -114.982101 87 10981ft 270kts
02-Nov-18 13:38 34.776879 -114.889966 87 9491ft 278kts
02-Nov-18 13:39 34.776791 -114.797814 87 7583ft 267kts
02-Nov-18 13:40 34.777189 -114.709981 86 6337ft 243kts
02-Nov-18 13:41 34.777371 -114.632050 86 6341ft 224kts
02-Nov-18 13:42 34.780222 -114.558107 63 6396ft 211kts
02-Nov-18 13:43 34.828458 -114.551288 0 6116ft 167kts
02-Nov-18 13:44 34.873281 -114.553917 358 5585ft 151kts
02-Nov-18 13:45 34.912808 -114.556087 359 5714ft 143kts
02-Nov-18 13:46 34.955009 -114.553278 4 5856ft 166kts
02-Nov-18 13:47 35.000486 -114.548070 359 4495ft 167kts
02-Nov-18 13:48 35.045399 -114.550485 352 3362ft 158kts
02-Nov-18 13:49 35.083940 -114.553816 352 2141ft 109kts
02-Nov-18 13:50 35.109786 -114.555917 353 1527ft 91kts
02-Nov-18 13:51 35.134310 -114.557783 351 942ft 75kts
02-Nov-18 13:52 35.152798 -114.559237 356 698ft 43kts
02-Nov-18 13:53 35.156678 -114.558087 353 698ft 8kts
02-Nov-18 13:54 35.160377 -114.558371 356 698ft 10kts
02-Nov-18 13:55 35.162884 -114.557497 142 698ft 11kts
02-Nov-18 13:56 35.160269 -114.556684 178 698ft 9kts
02-Nov-18 13:57 35.160783 -114.556403 87 698ft 0kts
02-Nov-18 13:58 35.160783 -114.556403 87 698ft 0kts
02-Nov-18 13:59 35.160783 -114.556403 87 698ft 0kts

Navigation Log

Ident Type
Flight plan parsing failed, navigation log unavailable